createdAt,value
2023-02-27T00:00:22.841Z,-1.46
2023-02-27T00:03:09.738Z,-1.46
2023-02-27T00:05:36.925Z,-1.50
2023-02-27T00:08:03.853Z,-1.51
2023-02-27T00:10:30.959Z,-1.50
2023-02-27T00:12:57.922Z,-1.52
2023-02-27T00:15:25.133Z,-1.51
2023-02-27T00:17:52.055Z,-1.53
2023-02-27T00:20:19.827Z,-1.51
2023-02-27T00:22:46.847Z,-1.50
2023-02-27T00:25:14.672Z,-1.50
2023-02-27T00:27:41.695Z,-1.49
2023-02-27T00:30:11.964Z,-1.52
2023-02-27T00:32:39.103Z,-1.52
2023-02-27T00:35:08.405Z,-1.50
2023-02-27T00:37:35.196Z,-1.55
2023-02-27T00:40:05.195Z,-1.53
2023-02-27T00:42:32.528Z,-1.53
2023-02-27T00:44:59.823Z,-1.53
2023-02-27T00:47:26.805Z,-1.54
2023-02-27T00:49:54.273Z,-1.54
2023-02-27T00:52:21.584Z,-1.54
2023-02-27T00:54:48.780Z,-1.53
2023-02-27T00:57:15.765Z,-1.51
2023-02-27T00:59:43.826Z,-1.51
2023-02-27T01:02:11.173Z,-1.51
2023-02-27T01:04:38.513Z,-1.53
2023-02-27T01:07:05.392Z,-1.53
2023-02-27T01:09:32.641Z,-1.56
2023-02-27T01:11:59.599Z,-1.55
2023-02-27T01:14:27.325Z,-1.59
2023-02-27T01:16:54.237Z,-1.60
2023-02-27T01:19:21.460Z,-1.63
2023-02-27T01:21:48.349Z,-1.61
2023-02-27T01:24:15.601Z,-1.62
2023-02-27T01:26:42.512Z,-1.64
2023-02-27T01:29:10.130Z,-1.62
2023-02-27T01:31:37.122Z,-1.62
2023-02-27T01:34:04.314Z,-1.63
2023-02-27T01:36:31.190Z,-1.65
2023-02-27T01:38:58.391Z,-1.67
2023-02-27T01:41:25.576Z,-1.65
2023-02-27T01:44:13.621Z,-1.69
2023-02-27T01:46:41.396Z,-1.68
2023-02-27T01:49:17.553Z,-1.70
2023-02-27T01:52:07.171Z,-1.73
2023-02-27T01:54:39.037Z,-1.73
2023-02-27T01:57:06.983Z,-1.73
2023-02-27T01:59:40.518Z,-1.74
2023-02-27T02:02:17.074Z,-1.73
2023-02-27T02:04:44.555Z,-1.71
2023-02-27T02:07:15.709Z,-1.73
2023-02-27T02:09:50.876Z,-1.73
2023-02-27T02:12:20.175Z,-1.72
2023-02-27T02:14:47.376Z,-1.74
2023-02-27T02:17:23.334Z,-1.75
2023-02-27T02:20:15.190Z,-1.76
2023-02-27T02:23:09.809Z,-1.78
2023-02-27T02:26:14.666Z,-1.80
2023-02-27T02:29:06.787Z,-1.78
2023-02-27T02:32:15.665Z,-1.80
2023-02-27T02:35:04.000Z,-1.84
2023-02-27T02:38:15.074Z,-1.86
2023-02-27T02:41:14.555Z,-1.84
2023-02-27T02:43:57.477Z,-1.82
2023-02-27T02:46:37.169Z,-1.83
2023-02-27T02:49:26.365Z,-1.84
2023-02-27T02:52:11.323Z,-1.89
2023-02-27T02:54:48.241Z,-1.92
2023-02-27T02:57:27.076Z,-1.89
2023-02-27T03:00:02.071Z,-1.92
2023-02-27T03:02:35.040Z,-1.93
2023-02-27T03:05:08.520Z,-1.92
2023-02-27T03:07:44.603Z,-1.93
2023-02-27T03:10:43.710Z,-1.94
2023-02-27T03:13:22.596Z,-1.96
2023-02-27T03:16:07.235Z,-1.97
2023-02-27T03:19:03.541Z,-2.02
2023-02-27T03:21:41.271Z,-2.03
2023-02-27T03:24:12.425Z,-2.06
2023-02-27T03:26:43.880Z,-2.06
2023-02-27T03:29:20.250Z,-2.06
2023-02-27T03:31:59.877Z,-2.07
2023-02-27T03:34:34.001Z,-2.06
2023-02-27T03:37:20.474Z,-2.07
2023-02-27T03:39:55.377Z,-2.06
2023-02-27T03:42:35.643Z,-2.06
2023-02-27T03:45:05.542Z,-2.07
2023-02-27T03:47:34.261Z,-2.09
2023-02-27T03:50:01.221Z,-2.13
2023-02-27T03:52:30.238Z,-2.14
2023-02-27T03:55:00.281Z,-2.10
2023-02-27T03:57:28.141Z,-2.12
2023-02-27T03:59:55.171Z,-2.13
2023-02-27T04:02:23.017Z,-2.10
2023-02-27T04:04:49.908Z,-2.10
2023-02-27T04:07:34.740Z,-2.10
2023-02-27T04:10:23.437Z,-2.10
2023-02-27T04:12:53.600Z,-2.12
2023-02-27T04:15:39.107Z,-2.12
2023-02-27T04:18:29.396Z,-2.13
2023-02-27T04:21:17.971Z,-2.13
2023-02-27T04:24:16.739Z,-2.15
2023-02-27T04:26:57.216Z,-2.17
2023-02-27T04:29:56.148Z,-2.18
2023-02-27T04:32:50.075Z,-2.19
2023-02-27T04:35:43.043Z,-2.19
2023-02-27T04:38:16.858Z,-2.18
2023-02-27T04:41:07.786Z,-2.19
2023-02-27T04:43:36.977Z,-2.18
2023-02-27T04:46:08.235Z,-2.19
2023-02-27T04:49:01.150Z,-2.21
2023-02-27T04:51:44.914Z,-2.20
2023-02-27T04:54:18.140Z,-2.18
2023-02-27T04:56:50.125Z,-2.20
2023-02-27T04:59:23.103Z,-2.20
2023-02-27T05:01:58.913Z,-2.17
2023-02-27T05:04:29.960Z,-2.16
2023-02-27T05:07:01.397Z,-2.15
2023-02-27T05:09:45.211Z,-2.15
2023-02-27T05:12:26.961Z,-2.16
2023-02-27T05:15:06.162Z,-2.16
2023-02-27T05:17:52.802Z,-2.16
2023-02-27T05:20:20.161Z,-2.18
2023-02-27T05:22:56.985Z,-2.20
2023-02-27T05:25:46.897Z,-2.20
2023-02-27T05:28:19.373Z,-2.20
2023-02-27T05:30:57.353Z,-2.16
2023-02-27T05:33:30.725Z,-2.17
2023-02-27T05:36:03.711Z,-2.17
2023-02-27T05:38:39.988Z,-2.15
2023-02-27T05:41:12.174Z,-2.13
2023-02-27T05:43:46.528Z,-2.14
2023-02-27T05:46:23.413Z,-2.14
2023-02-27T05:48:57.085Z,-2.12
2023-02-27T05:51:28.986Z,-2.13
2023-02-27T05:54:42.167Z,-2.13
2023-02-27T05:57:14.804Z,-2.14
2023-02-27T05:59:49.926Z,-2.12
2023-02-27T06:02:17.469Z,-2.14
2023-02-27T06:04:44.715Z,-2.10
2023-02-27T06:07:14.869Z,-2.09
2023-02-27T06:09:43.680Z,-2.07
2023-02-27T06:12:10.621Z,-2.03
2023-02-27T06:14:37.784Z,-2.03
2023-02-27T06:17:08.322Z,-2.02
2023-02-27T06:19:35.805Z,-2.00
2023-02-27T06:22:02.730Z,-2.00
2023-02-27T06:24:30.082Z,-1.99
2023-02-27T06:26:56.951Z,-1.97
2023-02-27T06:29:24.191Z,-1.95
2023-02-27T06:31:51.075Z,-1.94
2023-02-27T06:34:18.310Z,-1.88
2023-02-27T06:36:45.425Z,-1.85
2023-02-27T06:39:12.624Z,-1.85
2023-02-27T06:41:39.509Z,-1.83
2023-02-27T06:44:06.786Z,-1.81
2023-02-27T06:46:33.688Z,-1.84
2023-02-27T06:49:00.889Z,-1.84
2023-02-27T06:51:27.819Z,-1.80
2023-02-27T06:53:55.023Z,-1.77
2023-02-27T06:56:21.887Z,-1.74
2023-02-27T06:58:49.265Z,-1.69
2023-02-27T07:01:16.389Z,-1.67
2023-02-27T07:03:43.622Z,-1.63
2023-02-27T07:06:12.408Z,-1.59
2023-02-27T07:09:01.687Z,-1.60
2023-02-27T07:11:26.281Z,-1.61
2023-02-27T07:13:53.494Z,-1.60
2023-02-27T07:16:20.421Z,-1.55
2023-02-27T07:18:47.707Z,-1.50
2023-02-27T07:21:15.676Z,-1.44
2023-02-27T07:23:43.124Z,-1.41
2023-02-27T07:26:10.288Z,-1.39
2023-02-27T07:28:37.493Z,-1.33
2023-02-27T07:31:04.533Z,-1.33
2023-02-27T07:33:32.885Z,-1.30
2023-02-27T07:36:00.458Z,-1.28
2023-02-27T07:38:28.976Z,-1.27
2023-02-27T07:40:55.901Z,-1.26
2023-02-27T07:43:23.070Z,-1.22
2023-02-27T07:45:51.242Z,-1.19
2023-02-27T07:48:19.159Z,-1.15
2023-02-27T07:50:46.054Z,-1.11
2023-02-27T07:53:13.570Z,-1.07
2023-02-27T07:55:40.548Z,-1.03
2023-02-27T07:58:07.825Z,-1.05
2023-02-27T08:00:34.687Z,-0.98
2023-02-27T08:03:01.994Z,-0.95
2023-02-27T08:05:29.072Z,-0.87
2023-02-27T08:07:56.374Z,-0.77
2023-02-27T08:10:23.313Z,-0.68
2023-02-27T08:12:50.741Z,-0.63
2023-02-27T08:15:17.681Z,-0.56
2023-02-27T08:17:45.899Z,-0.50
2023-02-27T08:20:14.247Z,-0.44
2023-02-27T08:22:42.614Z,-0.37
2023-02-27T08:25:11.430Z,-0.33
2023-02-27T08:27:38.715Z,-0.38
2023-02-27T08:30:07.783Z,-0.41
2023-02-27T08:32:35.719Z,-0.42
2023-02-27T08:35:03.162Z,-0.38
2023-02-27T08:37:30.411Z,-0.30
2023-02-27T08:39:57.495Z,-0.26
2023-02-27T08:42:26.838Z,-0.26
2023-02-27T08:44:53.906Z,-0.28
2023-02-27T08:47:21.204Z,-0.25
2023-02-27T08:49:48.066Z,-0.18
2023-02-27T08:52:15.780Z,-0.17
2023-02-27T08:54:42.656Z,-0.22
2023-02-27T08:57:09.959Z,-0.21
2023-02-27T08:59:36.875Z,-0.17
2023-02-27T09:02:04.286Z,-0.11
2023-02-27T09:04:31.205Z,-0.03
2023-02-27T09:06:58.490Z,0.04
2023-02-27T09:09:25.479Z,0.07
2023-02-27T09:11:52.776Z,0.16
2023-02-27T09:14:20.241Z,0.24
2023-02-27T09:16:47.586Z,0.30
2023-02-27T09:19:15.838Z,0.32
2023-02-27T09:21:43.154Z,0.35
2023-02-27T09:24:19.627Z,0.40
2023-02-27T09:26:49.350Z,0.41
2023-02-27T09:29:16.567Z,0.46
2023-02-27T09:31:44.148Z,0.49
2023-02-27T09:34:11.129Z,0.59
2023-02-27T09:36:38.591Z,0.69
2023-02-27T09:39:05.737Z,0.75
2023-02-27T09:41:51.733Z,0.74
2023-02-27T09:44:44.924Z,0.75
2023-02-27T09:47:21.293Z,0.80
2023-02-27T09:49:55.956Z,0.81
2023-02-27T09:52:23.292Z,0.79
2023-02-27T09:54:50.465Z,0.83
2023-02-27T09:57:38.382Z,0.91
2023-02-27T10:00:12.861Z,0.98
2023-02-27T10:02:51.301Z,1.06
2023-02-27T10:05:24.791Z,1.15
2023-02-27T10:08:17.399Z,1.28
2023-02-27T10:11:02.303Z,1.43
2023-02-27T10:13:51.133Z,1.61
2023-02-27T10:16:20.785Z,1.76
2023-02-27T10:18:58.042Z,1.86
2023-02-27T10:21:38.684Z,1.89
2023-02-27T10:24:11.066Z,1.93
2023-02-27T10:26:42.411Z,2.01
2023-02-27T10:29:20.924Z,2.04
2023-02-27T10:31:53.724Z,2.07
2023-02-27T10:34:23.354Z,2.17
2023-02-27T10:36:50.331Z,2.31
2023-02-27T10:39:20.984Z,2.34
2023-02-27T10:41:49.640Z,2.39
2023-02-27T10:44:20.748Z,2.41
2023-02-27T10:46:50.610Z,2.36
2023-02-27T10:49:21.411Z,2.36
2023-02-27T10:52:12.124Z,2.34
2023-02-27T10:54:40.623Z,2.29
2023-02-27T10:57:30.989Z,2.26
2023-02-27T11:00:01.785Z,2.28
2023-02-27T11:02:38.293Z,2.30
2023-02-27T11:05:07.921Z,2.33
2023-02-27T11:07:37.860Z,2.29
2023-02-27T11:10:11.848Z,2.23
2023-02-27T11:12:41.316Z,2.20
2023-02-27T11:15:11.431Z,2.18
2023-02-27T11:17:38.297Z,2.14
2023-02-27T11:20:25.789Z,2.06
2023-02-27T11:23:06.524Z,1.85
2023-02-27T11:25:34.223Z,1.76
2023-02-27T11:28:13.076Z,1.79
2023-02-27T11:30:42.327Z,1.72
2023-02-27T11:33:19.389Z,1.74
2023-02-27T11:35:56.931Z,1.80
2023-02-27T11:38:30.491Z,1.94
2023-02-27T11:41:03.684Z,2.01
2023-02-27T11:43:37.030Z,2.06
2023-02-27T11:46:27.579Z,2.00
2023-02-27T11:48:57.547Z,1.94
2023-02-27T11:51:49.523Z,1.93
2023-02-27T11:54:55.634Z,1.87
2023-02-27T11:57:35.409Z,1.77
2023-02-27T12:00:06.615Z,1.78
2023-02-27T12:02:53.037Z,1.80
2023-02-27T12:06:00.927Z,1.78
2023-02-27T12:08:50.619Z,1.72
2023-02-27T12:11:38.305Z,1.65
2023-02-27T12:14:27.499Z,1.68
2023-02-27T12:16:58.098Z,1.69
2023-02-27T12:19:44.112Z,1.69
2023-02-27T12:22:26.877Z,1.70
2023-02-27T12:25:02.649Z,1.66
2023-02-27T12:27:46.833Z,1.59
2023-02-27T12:30:31.968Z,1.60
2023-02-27T12:33:39.089Z,1.62
2023-02-27T12:36:11.876Z,1.64
2023-02-27T12:38:39.247Z,1.64
2023-02-27T12:41:12.221Z,1.65
2023-02-27T12:43:55.582Z,1.59
2023-02-27T12:46:50.217Z,1.46
2023-02-27T12:49:51.874Z,1.42
2023-02-27T12:52:56.597Z,1.40
2023-02-27T12:55:33.439Z,1.39
2023-02-27T12:58:30.194Z,1.40
2023-02-27T13:01:05.024Z,1.41
2023-02-27T13:03:48.911Z,1.39
2023-02-27T13:06:50.268Z,1.27
2023-02-27T13:09:42.151Z,1.20
2023-02-27T13:12:39.555Z,1.19
2023-02-27T13:15:19.778Z,1.25
2023-02-27T13:17:49.626Z,1.23
2023-02-27T13:20:58.238Z,1.06
2023-02-27T13:23:35.331Z,1.01
2023-02-27T13:26:20.916Z,1.04
2023-02-27T13:28:49.006Z,1.15
2023-02-27T13:31:40.683Z,1.20
2023-02-27T13:34:16.991Z,1.23
2023-02-27T13:36:49.137Z,1.30
2023-02-27T13:39:45.107Z,1.36
2023-02-27T13:42:27.729Z,1.46
2023-02-27T13:44:58.602Z,1.51
2023-02-27T13:47:39.811Z,1.37
2023-02-27T13:50:18.906Z,1.12
2023-02-27T13:52:47.023Z,1.09
2023-02-27T13:55:35.339Z,1.09
2023-02-27T13:58:04.877Z,1.15
2023-02-27T14:00:32.764Z,1.07
2023-02-27T14:03:20.597Z,1.10
2023-02-27T14:05:51.788Z,1.12
2023-02-27T14:08:25.715Z,1.10
2023-02-27T14:11:20.301Z,1.03
2023-02-27T14:13:50.626Z,1.07
2023-02-27T14:16:39.239Z,1.03
2023-02-27T14:19:15.604Z,1.04
2023-02-27T14:21:51.509Z,0.96
2023-02-27T14:24:22.452Z,0.98
2023-02-27T14:26:50.537Z,1.07
2023-02-27T14:29:21.185Z,1.15
2023-02-27T14:31:49.212Z,1.21
2023-02-27T14:34:20.459Z,1.26
2023-02-27T14:36:52.015Z,1.28
2023-02-27T14:39:21.889Z,1.32
2023-02-27T14:41:54.724Z,1.35
2023-02-27T14:44:25.295Z,1.41
2023-02-27T14:46:55.243Z,1.41
2023-02-27T14:49:29.277Z,1.43
2023-02-27T14:51:57.409Z,1.41
2023-02-27T14:54:28.174Z,1.41
2023-02-27T14:56:57.633Z,1.47
2023-02-27T14:59:28.371Z,1.55
2023-02-27T15:01:57.196Z,1.47
2023-02-27T15:04:27.019Z,1.28
2023-02-27T15:06:56.465Z,1.12
2023-02-27T15:09:43.467Z,1.01
2023-02-27T15:12:18.371Z,0.95
2023-02-27T15:15:01.524Z,0.92
2023-02-27T15:17:43.857Z,0.91
2023-02-27T15:20:30.229Z,0.88
2023-02-27T15:22:58.715Z,0.79
2023-02-27T15:25:33.743Z,0.59
2023-02-27T15:28:17.959Z,0.50
2023-02-27T15:30:49.522Z,0.36
2023-02-27T15:33:17.415Z,0.28
2023-02-27T15:35:46.181Z,0.19
2023-02-27T15:38:35.411Z,0.11
2023-02-27T15:41:04.147Z,-0.01
2023-02-27T15:43:31.481Z,-0.10
2023-02-27T15:45:59.364Z,-0.12
2023-02-27T15:48:26.767Z,-0.14
2023-02-27T15:51:03.792Z,-0.16
2023-02-27T15:53:34.185Z,-0.21
2023-02-27T15:56:06.709Z,-0.23
2023-02-27T15:58:38.976Z,-0.28
2023-02-27T16:01:21.120Z,-0.35
2023-02-27T16:03:53.949Z,-0.37
2023-02-27T16:06:39.123Z,-0.42
2023-02-27T16:09:19.670Z,-0.44
2023-02-27T16:11:46.975Z,-0.47
2023-02-27T16:14:42.168Z,-0.52
2023-02-27T16:17:24.372Z,-0.53
2023-02-27T16:19:51.419Z,-0.56
2023-02-27T16:22:20.834Z,-0.58
2023-02-27T16:24:48.497Z,-0.60
2023-02-27T16:27:27.570Z,-0.63
2023-02-27T16:29:57.510Z,-0.66
2023-02-27T16:32:30.539Z,-0.68
2023-02-27T16:35:06.640Z,-0.69
2023-02-27T16:37:38.489Z,-0.70
2023-02-27T16:40:25.168Z,-0.72
2023-02-27T16:42:52.736Z,-0.76
2023-02-27T16:45:22.913Z,-0.76
2023-02-27T16:47:52.825Z,-0.78
2023-02-27T16:50:30.610Z,-0.77
2023-02-27T16:52:57.894Z,-0.80
2023-02-27T16:55:26.077Z,-0.81
2023-02-27T16:57:53.714Z,-0.84
2023-02-27T17:00:22.767Z,-0.85
2023-02-27T17:02:50.345Z,-0.87
2023-02-27T17:05:18.435Z,-0.88
2023-02-27T17:07:46.413Z,-0.89
2023-02-27T17:10:19.468Z,-0.89
2023-02-27T17:12:48.019Z,-0.90
2023-02-27T17:15:15.925Z,-0.92
2023-02-27T17:17:43.720Z,-0.94
2023-02-27T17:20:12.741Z,-0.94
2023-02-27T17:22:42.272Z,-0.95
2023-02-27T17:25:10.594Z,-0.97
2023-02-27T17:27:38.243Z,-0.97
2023-02-27T17:30:06.869Z,-1.01
2023-02-27T17:32:35.037Z,-1.01
2023-02-27T17:35:02.758Z,-1.02
2023-02-27T17:37:30.135Z,-1.01
2023-02-27T17:39:57.093Z,-1.03
2023-02-27T17:42:25.885Z,-1.03
2023-02-27T17:44:52.958Z,-1.01
2023-02-27T17:47:20.339Z,-1.03
2023-02-27T17:49:47.594Z,-1.04
2023-02-27T17:52:15.546Z,-1.02
2023-02-27T17:54:42.463Z,-1.04
2023-02-27T17:57:11.483Z,-1.05
2023-02-27T17:59:38.441Z,-1.07
2023-02-27T18:02:06.422Z,-1.06
2023-02-27T18:04:33.305Z,-1.08
2023-02-27T18:07:00.523Z,-1.11
2023-02-27T18:09:27.485Z,-1.11
2023-02-27T18:11:54.786Z,-1.11
2023-02-27T18:14:23.087Z,-1.14
2023-02-27T18:16:50.556Z,-1.13
2023-02-27T18:19:18.384Z,-1.15
2023-02-27T18:21:47.304Z,-1.13
2023-02-27T18:24:17.577Z,-1.13
2023-02-27T18:26:45.458Z,-1.13
2023-02-27T18:29:14.123Z,-1.17
2023-02-27T18:31:44.497Z,-1.21
2023-02-27T18:34:12.404Z,-1.24
2023-02-27T18:36:39.728Z,-1.29
2023-02-27T18:39:07.018Z,-1.32
2023-02-27T18:41:34.775Z,-1.35
2023-02-27T18:44:02.269Z,-1.37
2023-02-27T18:46:29.588Z,-1.43
2023-02-27T18:48:57.199Z,-1.47
2023-02-27T18:51:24.392Z,-1.55
2023-02-27T18:53:52.122Z,-1.68
2023-02-27T18:56:24.967Z,-1.75
2023-02-27T18:58:53.224Z,-1.81
2023-02-27T19:01:31.242Z,-1.88
2023-02-27T19:04:03.627Z,-1.94
2023-02-27T19:06:41.095Z,-1.96
2023-02-27T19:09:11.230Z,-1.99
2023-02-27T19:11:39.929Z,-2.01
2023-02-27T19:14:10.764Z,-2.02
2023-02-27T19:16:38.012Z,-2.03
2023-02-27T19:19:06.108Z,-2.06
2023-02-27T19:21:34.017Z,-2.05
2023-02-27T19:24:01.513Z,-2.09
2023-02-27T19:26:29.548Z,-2.12
2023-02-27T19:28:57.120Z,-2.12
2023-02-27T19:31:24.649Z,-2.16
2023-02-27T19:33:52.374Z,-2.26
2023-02-27T19:36:21.199Z,-2.28
2023-02-27T19:38:49.454Z,-2.29
2023-02-27T19:41:17.891Z,-2.31
2023-02-27T19:43:46.329Z,-2.33
2023-02-27T19:46:16.808Z,-2.39
2023-02-27T19:48:45.286Z,-2.42
2023-02-27T19:51:14.204Z,-2.43
2023-02-27T19:53:42.963Z,-2.46
2023-02-27T19:56:13.356Z,-2.51
2023-02-27T19:58:41.115Z,-2.49
2023-02-27T20:01:08.464Z,-2.50
2023-02-27T20:03:37.138Z,-2.50
2023-02-27T20:06:09.255Z,-2.52
2023-02-27T20:08:36.525Z,-2.54
2023-02-27T20:11:04.821Z,-2.54
2023-02-27T20:13:32.084Z,-2.60
2023-02-27T20:16:04.656Z,-2.59
2023-02-27T20:18:33.069Z,-2.60
2023-02-27T20:21:11.060Z,-2.66
2023-02-27T20:23:40.310Z,-2.65
2023-02-27T20:26:14.612Z,-2.75
2023-02-27T20:28:42.195Z,-2.81
2023-02-27T20:31:12.666Z,-2.82
2023-02-27T20:33:40.956Z,-2.81
2023-02-27T20:36:10.054Z,-2.82
2023-02-27T20:38:39.245Z,-2.87
2023-02-27T20:41:10.363Z,-2.89
2023-02-27T20:43:38.637Z,-2.89
2023-02-27T20:46:07.303Z,-2.92
2023-02-27T20:48:35.226Z,-2.97
2023-02-27T20:51:22.963Z,-3.02
2023-02-27T20:53:52.870Z,-3.04
2023-02-27T20:56:22.503Z,-3.09
2023-02-27T20:58:49.774Z,-3.13
2023-02-27T21:01:17.532Z,-3.18
2023-02-27T21:03:46.558Z,-3.19
2023-02-27T21:06:16.013Z,-3.20
2023-02-27T21:08:46.134Z,-3.21
2023-02-27T21:11:19.440Z,-3.20
2023-02-27T21:13:47.349Z,-3.25
2023-02-27T21:16:16.593Z,-3.25
2023-02-27T21:18:44.876Z,-3.30
2023-02-27T21:21:15.897Z,-3.33
2023-02-27T21:23:43.608Z,-3.38
2023-02-27T21:26:24.273Z,-3.42
2023-02-27T21:29:07.013Z,-3.50
2023-02-27T21:31:35.235Z,-3.58
2023-02-27T21:34:05.531Z,-3.65
2023-02-27T21:36:34.782Z,-3.72
2023-02-27T21:39:11.449Z,-3.80
2023-02-27T21:41:38.825Z,-3.86
2023-02-27T21:44:08.076Z,-3.91
2023-02-27T21:46:35.934Z,-3.95
2023-02-27T21:49:04.022Z,-4.03
2023-02-27T21:51:40.058Z,-4.09
2023-02-27T21:54:11.232Z,-4.11
2023-02-27T21:56:38.972Z,-4.12
2023-02-27T21:59:06.419Z,-4.17
2023-02-27T22:01:33.866Z,-4.22
2023-02-27T22:04:01.973Z,-4.26
2023-02-27T22:06:34.237Z,-4.30
2023-02-27T22:09:05.064Z,-4.34
2023-02-27T22:11:34.289Z,-4.38
2023-02-27T22:14:02.496Z,-4.42
2023-02-27T22:16:29.488Z,-4.46
2023-02-27T22:18:56.776Z,-4.47
2023-02-27T22:21:27.110Z,-4.49
2023-02-27T22:23:57.992Z,-4.49
2023-02-27T22:26:28.317Z,-4.53
2023-02-27T22:28:57.327Z,-4.57
2023-02-27T22:31:29.887Z,-4.57
2023-02-27T22:34:01.705Z,-4.64
2023-02-27T22:36:30.475Z,-4.71
2023-02-27T22:38:57.989Z,-4.72
2023-02-27T22:41:28.864Z,-4.69
2023-02-27T22:43:59.917Z,-4.67
2023-02-27T22:46:29.717Z,-4.66
2023-02-27T22:48:59.005Z,-4.65
2023-02-27T22:51:28.703Z,-4.68
2023-02-27T22:53:58.585Z,-4.72
2023-02-27T22:56:25.976Z,-4.81
2023-02-27T22:58:53.429Z,-4.89
2023-02-27T23:01:26.494Z,-4.95
2023-02-27T23:03:56.187Z,-4.97
2023-02-27T23:06:26.133Z,-5.04
2023-02-27T23:08:53.452Z,-5.06
2023-02-27T23:11:20.860Z,-5.08
2023-02-27T23:13:49.542Z,-5.09
2023-02-27T23:16:17.618Z,-5.15
2023-02-27T23:18:51.529Z,-5.12
2023-02-27T23:21:20.498Z,-5.12
2023-02-27T23:23:47.921Z,-5.13
2023-02-27T23:26:15.297Z,-5.15
2023-02-27T23:28:42.857Z,-5.19
2023-02-27T23:31:10.106Z,-5.23
2023-02-27T23:33:37.436Z,-5.28
2023-02-27T23:36:04.711Z,-5.29
2023-02-27T23:38:32.166Z,-5.28
2023-02-27T23:41:07.940Z,-5.26
2023-02-27T23:43:54.835Z,-5.23
2023-02-27T23:46:21.810Z,-5.26
2023-02-27T23:48:49.253Z,-5.29
2023-02-27T23:51:16.614Z,-5.30
2023-02-27T23:53:44.650Z,-5.29
2023-02-27T23:56:18.810Z,-5.31
2023-02-27T23:58:46.952Z,-5.34
